Time;durP1;ratioP1;P1;durP2;ratioP2;P2;SDS_P1;SDS_P2;PMS_P1;PMS_P2;Temp;Humidity;BMP_temperature;BMP_pressure;BME280_temperature;BME280_humidity;BME280_pressure;Samples;Min_cycle;Max_cycle;Signal;HPM_P1;HPM_P2
2022/04/10 00:02:05;;;;;;;18.33;10.65;;;;;;;7.00;63.44;92345.63;5090722;28;20023;-54
2022/04/10 00:04:32;;;;;;;27.75;13.02;;;;;;;6.88;65.17;92361.03;5090521;28;20520;-52
2022/04/10 00:06:58;;;;;;;16.65;10.27;;;;;;;6.97;63.02;92335.78;5072148;28;20024;-53
2022/04/10 00:09:23;;;;;;;18.25;10.20;;;;;;;6.74;63.63;92332.31;5083139;28;20044;-56
2022/04/10 00:11:49;;;;;;;20.58;12.35;;;;;;;6.56;65.04;92336.19;5080130;28;20032;-55
2022/04/10 00:14:14;;;;;;;10.80;6.80;;;;;;;6.60;64.43;92348.25;5090329;28;20479;-56
2022/04/10 00:16:40;;;;;;;12.27;6.78;;;;;;;6.59;63.64;92329.59;5072663;28;20024;-57
2022/04/10 00:19:05;;;;;;;11.48;6.10;;;;;;;6.30;64.98;92334.56;5070056;28;20433;-56
2022/04/10 00:21:32;;;;;;;16.80;8.30;;;;;;;6.31;65.42;92338.75;5070353;28;20028;-49
2022/04/10 00:23:58;;;;;;;12.23;7.38;;;;;;;6.39;65.88;92344.25;5073063;28;20039;-51
2022/04/10 00:26:23;;;;;;;13.90;6.95;;;;;;;6.51;64.78;92320.66;5090256;28;20024;-50
2022/04/10 00:28:50;;;;;;;13.43;6.70;;;;;;;6.45;64.91;92309.88;5088464;28;20051;-50
2022/04/10 00:31:16;;;;;;;18.52;10.05;;;;;;;6.67;65.51;92333.78;5090484;28;20028;-51
2022/04/10 00:33:42;;;;;;;8.35;5.22;;;;;;;6.84;64.55;92317.47;5090308;28;20081;-48
2022/04/10 00:36:08;;;;;;;17.08;7.72;;;;;;;6.97;64.70;92333.03;5090453;28;20028;-51
2022/04/10 00:38:33;;;;;;;13.75;6.40;;;;;;;6.93;63.97;92329.91;5090377;28;20020;-49
2022/04/10 00:40:59;;;;;;;11.52;5.95;;;;;;;6.99;63.31;92324.22;5090237;28;20032;-52
2022/04/10 00:43:32;;;;;;;8.77;5.60;;;;;;;7.13;64.04;92315.22;5090398;28;20024;-49
2022/04/10 00:45:59;;;;;;;10.25;5.88;;;;;;;7.07;63.90;92305.72;5090071;28;20028;-49
2022/04/10 00:48:24;;;;;;;18.67;8.65;;;;;;;7.11;64.07;92312.28;5090268;28;20418;-49
2022/04/10 00:53:35;;;;;;;28.00;12.70;;;;;;;7.20;64.06;92303.50;5083634;28;20516;-49
2022/04/10 00:56:01;;;;;;;25.40;11.45;;;;;;;7.21;64.11;92299.44;5068567;28;20029;-50
2022/04/10 00:58:27;;;;;;;13.65;5.65;;;;;;;7.42;63.27;92302.69;5079351;28;20032;-53
2022/04/10 01:00:53;;;;;;;21.55;9.35;;;;;;;7.58;63.21;92297.81;5088566;28;20048;-52
2022/04/10 01:03:18;;;;;;;20.52;11.82;;;;;;;7.51;63.89;92299.31;5090149;28;20024;-52
2022/04/10 01:05:45;;;;;;;39.92;18.55;;;;;;;7.49;64.00;92306.69;5081555;28;20033;-50
2022/04/10 01:08:11;;;;;;;43.33;20.20;;;;;;;7.38;63.70;92310.56;5069547;28;20528;-53
2022/04/10 01:10:36;;;;;;;39.53;20.33;;;;;;;7.48;64.67;92305.94;5069648;28;20028;-51
2022/04/10 01:13:02;;;;;;;33.92;19.95;;;;;;;7.50;64.58;92305.38;5069453;28;20027;-54
2022/04/10 01:15:27;;;;;;;33.38;17.75;;;;;;;7.52;64.66;92298.03;5069669;28;20028;-51
2022/04/10 01:17:53;;;;;;;28.70;16.10;;;;;;;7.45;64.12;92289.84;5069533;28;20020;-54
2022/04/10 01:20:19;;;;;;;14.48;7.90;;;;;;;7.47;64.69;92292.78;5072472;28;20012;-54
2022/04/10 01:22:45;;;;;;;11.25;6.15;;;;;;;7.53;63.95;92285.03;5089724;28;20031;-49
2022/04/10 01:25:10;;;;;;;10.10;5.30;;;;;;;7.48;64.80;92270.22;5088597;28;20024;-50
2022/04/10 01:27:40;;;;;;;5.47;3.90;;;;;;;7.57;64.36;92285.38;5090063;28;20409;-57
2022/04/10 01:30:08;;;;;;;10.63;4.93;;;;;;;7.53;64.55;92283.03;5089945;28;20116;-58
2022/04/10 01:32:34;;;;;;;8.88;4.10;;;;;;;7.58;64.45;92267.59;5089650;28;20024;-58
2022/04/10 01:35:01;;;;;;;8.77;4.25;;;;;;;7.64;64.11;92266.09;5089809;28;20034;-58
2022/04/10 01:37:27;;;;;;;7.45;4.10;;;;;;;7.65;64.71;92256.59;5089630;28;20771;-58
2022/04/10 01:39:53;;;;;;;8.45;3.83;;;;;;;7.60;64.85;92259.56;5092313;28;20030;-57
2022/04/10 01:42:19;;;;;;;7.78;4.85;;;;;;;7.59;64.68;92247.09;5093138;28;20024;-59
2022/04/10 01:44:44;;;;;;;13.05;6.50;;;;;;;7.79;63.57;92257.06;5093528;28;20016;-59
2022/04/10 01:47:10;;;;;;;10.75;7.05;;;;;;;7.99;62.61;92253.25;5092851;28;20532;-52
2022/04/10 01:49:36;;;;;;;10.10;6.18;;;;;;;7.98;62.01;92245.56;5091751;28;20073;-57
2022/04/10 01:52:02;;;;;;;14.00;6.22;;;;;;;7.94;62.38;92234.22;5082701;28;20025;-56
2022/04/10 01:54:28;;;;;;;11.90;5.65;;;;;;;7.76;63.51;92227.22;5081121;28;20043;-53
2022/04/10 01:56:53;;;;;;;11.35;5.68;;;;;;;7.78;63.12;92235.63;5083024;28;20020;-52
2022/04/10 01:59:19;;;;;;;9.45;5.60;;;;;;;7.74;63.45;92229.78;5081005;28;20101;-52
2022/04/10 02:01:45;;;;;;;11.00;6.05;;;;;;;7.75;63.34;92236.75;5082881;28;20025;-50
2022/04/10 02:04:10;;;;;;;8.98;5.32;;;;;;;7.69;64.13;92234.22;5081292;28;20375;-52
2022/04/10 02:06:37;;;;;;;12.30;6.05;;;;;;;7.67;64.90;92233.34;5081398;28;20032;-48
2022/04/10 02:09:08;;;;;;;9.20;5.35;;;;;;;7.61;64.02;92226.03;5081604;28;20020;-59
2022/04/10 02:11:34;;;;;;;8.73;4.88;;;;;;;7.73;62.51;92220.09;5081223;28;20524;-59
2022/04/10 02:14:00;;;;;;;6.30;4.80;;;;;;;7.63;63.51;92226.19;5082241;28;20020;-57
2022/04/10 02:16:25;;;;;;;12.73;7.30;;;;;;;7.48;63.96;92229.03;5080634;28;20458;-57
2022/04/10 02:18:51;;;;;;;17.17;9.57;;;;;;;7.38;64.66;92230.94;5082789;28;20027;-59
2022/04/10 02:21:16;;;;;;;17.77;9.75;;;;;;;7.53;64.72;92233.59;5081597;28;20032;-56
2022/04/10 02:23:42;;;;;;;21.15;11.63;;;;;;;7.26;64.60;92218.16;5081737;28;20032;-57
2022/04/10 02:26:11;;;;;;;18.58;11.20;;;;;;;7.42;64.74;92239.50;5082705;28;20035;-60
2022/04/10 02:28:37;;;;;;;24.80;15.18;;;;;;;7.45;64.69;92230.16;5080428;28;20028;-57
2022/04/10 02:31:03;;;;;;;21.55;11.60;;;;;;;7.38;64.65;92236.44;5078645;28;20052;-62
2022/04/10 02:33:28;;;;;;;17.42;10.95;;;;;;;7.27;64.84;92236.13;5087022;28;20046;-63
2022/04/10 02:35:54;;;;;;;17.08;9.77;;;;;;;7.00;64.88;92237.88;5092137;28;20027;-63
2022/04/10 02:38:19;;;;;;;15.18;8.77;;;;;;;6.89;66.52;92239.75;5092132;28;20035;-61
2022/04/10 02:40:45;;;;;;;10.70;7.03;;;;;;;6.79;66.37;92249.09;5092124;28;20024;-59
2022/04/10 02:43:10;;;;;;;9.85;5.32;;;;;;;6.64;66.81;92249.16;5092154;28;20027;-59
2022/04/10 02:45:37;;;;;;;9.50;5.55;;;;;;;6.68;66.73;92252.25;5091980;28;20504;-59
2022/04/10 02:48:02;;;;;;;7.13;4.80;;;;;;;6.77;66.56;92259.91;5092169;28;20027;-59
2022/04/10 02:50:28;;;;;;;12.05;4.90;;;;;;;6.65;67.29;92256.81;5091458;28;20020;-60
2022/04/10 02:52:54;;;;;;;10.05;5.45;;;;;;;6.70;66.80;92258.63;5091980;28;20020;-60
2022/04/10 02:55:20;;;;;;;9.00;6.05;;;;;;;6.81;66.60;92252.03;5091700;28;20504;-59
2022/04/10 02:57:45;;;;;;;8.60;5.00;;;;;;;6.74;66.57;92258.25;5087165;28;20025;-59
2022/04/10 03:00:11;;;;;;;9.75;5.50;;;;;;;6.67;67.07;92253.53;5071109;28;20430;-59
2022/04/10 03:02:40;;;;;;;7.75;5.53;;;;;;;6.93;66.68;92250.31;5071342;28;20024;-59
2022/04/10 03:05:09;;;;;;;9.10;4.97;;;;;;;6.88;67.09;92259.50;5071516;28;20764;-59
2022/04/10 03:07:35;;;;;;;8.23;5.50;;;;;;;6.98;66.12;92254.91;5071374;28;20024;-61
2022/04/10 03:10:00;;;;;;;8.13;5.60;;;;;;;7.02;65.99;92260.03;5071200;28;20035;-60
2022/04/10 03:12:26;;;;;;;11.02;6.57;;;;;;;7.07;65.70;92276.28;5071899;28;20258;-60
2022/04/10 03:14:51;;;;;;;15.35;7.90;;;;;;;7.06;65.46;92271.34;5091768;28;20104;-60
2022/04/10 03:17:17;;;;;;;15.30;7.78;;;;;;;6.66;66.63;92247.31;5091480;28;20039;-60
2022/04/10 03:19:42;;;;;;;22.63;12.50;;;;;;;6.83;67.07;92271.41;5091694;28;20535;-60
2022/04/10 03:22:07;;;;;;;15.00;7.60;;;;;;;6.68;67.55;92272.19;5091260;28;20619;-62
2022/04/10 03:24:33;;;;;;;9.88;5.80;;;;;;;6.74;68.29;92277.47;5091169;28;20154;-61
2022/04/10 03:26:58;;;;;;;10.82;4.60;;;;;;;6.62;67.47;92276.41;5091476;28;20043;-60
2022/04/10 03:29:24;;;;;;;6.97;4.55;;;;;;;6.57;67.83;92266.34;5091377;28;20404;-60
2022/04/10 03:31:49;;;;;;;6.70;4.40;;;;;;;6.60;69.10;92268.00;5089876;28;20024;-60
2022/04/10 03:34:15;;;;;;;9.40;4.18;;;;;;;6.80;68.23;92267.00;5091218;28;20024;-53
2022/04/10 03:36:40;;;;;;;8.27;4.40;;;;;;;6.86;67.51;92281.28;5091253;28;20477;-55
2022/04/10 03:39:06;;;;;;;8.82;5.55;;;;;;;6.91;67.79;92279.63;5091227;28;20423;-54
2022/04/10 03:41:31;;;;;;;16.23;8.48;;;;;;;7.04;67.21;92273.91;5090862;28;20031;-55
2022/04/10 03:43:56;;;;;;;13.98;8.65;;;;;;;7.04;66.48;92285.59;5091220;28;20058;-53
2022/04/10 03:46:22;;;;;;;15.35;9.07;;;;;;;7.13;65.59;92293.25;5090746;28;20085;-49
2022/04/10 03:48:47;;;;;;;15.23;8.93;;;;;;;7.12;66.34;92291.06;5090717;28;20031;-48
2022/04/10 03:51:13;;;;;;;16.10;8.85;;;;;;;6.92;66.88;92289.31;5090591;28;20027;-49
2022/04/10 03:53:38;;;;;;;13.73;8.65;;;;;;;7.12;66.62;92286.31;5090980;28;20016;-49
2022/04/10 03:56:04;;;;;;;16.17;9.15;;;;;;;7.04;67.94;92293.84;5090732;28;20028;-54
2022/04/10 03:58:30;;;;;;;13.77;9.57;;;;;;;6.95;67.53;92277.22;5079532;28;20032;-55
2022/04/10 04:00:56;;;;;;;20.77;12.20;;;;;;;7.09;67.75;92290.16;5069008;28;20430;-53
2022/04/10 04:03:21;;;;;;;19.98;10.02;;;;;;;7.07;67.64;92284.50;5070324;28;20088;-58
2022/04/10 04:05:47;;;;;;;24.92;10.80;;;;;;;7.15;67.05;92296.19;5070150;28;20028;-57
2022/04/10 04:08:12;;;;;;;17.33;9.80;;;;;;;7.30;66.49;92290.63;5070534;28;20051;-58
2022/04/10 04:10:37;;;;;;;17.58;11.18;;;;;;;7.31;66.66;92302.34;5087302;28;20115;-59
2022/04/10 04:13:03;;;;;;;19.83;13.13;;;;;;;7.28;67.85;92309.69;5090541;28;20451;-63
2022/04/10 04:15:29;;;;;;;18.13;10.68;;;;;;;7.44;66.32;92297.34;5090737;28;20489;-59
2022/04/10 04:17:54;;;;;;;21.17;11.88;;;;;;;7.35;67.00;92316.41;5090286;28;20046;-60
2022/04/10 04:20:19;;;;;;;24.17;11.88;;;;;;;7.03;67.51;92310.84;5090630;28;20027;-61
2022/04/10 04:22:45;;;;;;;18.63;9.88;;;;;;;6.98;67.47;92309.78;5090321;28;20051;-61
2022/04/10 04:25:10;;;;;;;18.23;10.18;;;;;;;7.26;66.55;92293.03;5090411;28;20024;-61
2022/04/10 04:27:36;;;;;;;16.60;9.82;;;;;;;7.11;67.50;92304.06;5090371;28;20623;-61
2022/04/10 04:30:02;;;;;;;20.25;10.10;;;;;;;7.14;68.75;92313.94;5090501;28;20457;-61
2022/04/10 04:32:27;;;;;;;16.08;10.40;;;;;;;7.22;67.97;92327.63;5090254;28;20415;-59
2022/04/10 04:34:53;;;;;;;14.93;8.95;;;;;;;7.27;66.86;92300.00;5090050;28;20059;-60
2022/04/10 04:37:18;;;;;;;19.33;10.82;;;;;;;7.54;66.15;92319.44;5090382;28;20065;-60
2022/04/10 04:39:44;;;;;;;15.45;9.32;;;;;;;7.70;65.08;92328.34;5090257;28;20420;-60
2022/04/10 04:42:09;;;;;;;16.95;8.52;;;;;;;7.73;64.74;92327.25;5089964;28;20024;-60
2022/04/10 04:44:35;;;;;;;12.50;6.05;;;;;;;7.44;64.79;92343.31;5090112;28;20056;-60
2022/04/10 04:47:00;;;;;;;12.43;7.47;;;;;;;7.59;65.34;92348.72;5090259;28;20035;-59
2022/04/10 04:49:26;;;;;;;11.85;7.40;;;;;;;7.63;65.90;92352.56;5090382;28;20181;-60
2022/04/10 04:51:52;;;;;;;15.60;8.45;;;;;;;7.43;67.48;92334.31;5090273;28;20032;-59
2022/04/10 04:54:17;;;;;;;15.05;8.85;;;;;;;7.50;67.76;92343.81;5089810;28;20416;-59
2022/04/10 04:56:43;;;;;;;16.08;9.57;;;;;;;7.34;67.89;92345.19;5090042;28;20024;-59
2022/04/10 04:59:08;;;;;;;17.48;8.77;;;;;;;7.58;68.43;92348.00;5073270;28;20046;-60
2022/04/10 05:01:34;;;;;;;11.48;7.00;;;;;;;7.81;65.92;92336.19;5069759;28;20078;-61
2022/04/10 05:03:59;;;;;;;8.82;4.88;;;;;;;7.73;66.05;92336.22;5069872;28;20029;-58
2022/04/10 05:06:25;;;;;;;14.27;7.55;;;;;;;7.94;66.57;92344.16;5082689;28;20413;-58
2022/04/10 05:08:51;;;;;;;26.95;13.30;;;;;;;8.19;68.26;92331.16;5089816;28;20024;-58
2022/04/10 05:11:16;;;;;;;55.45;30.30;;;;;;;8.35;67.47;92324.31;5090054;28;20023;-58
2022/04/10 05:13:43;;;;;;;29.15;15.43;;;;;;;8.50;66.56;92310.44;5090752;28;20035;-59
2022/04/10 05:16:08;;;;;;;22.27;13.55;;;;;;;8.49;66.19;92324.75;5093662;28;20539;-57
2022/04/10 05:18:34;;;;;;;22.67;13.07;;;;;;;8.54;66.14;92321.03;5093908;28;20023;-56
2022/04/10 05:21:00;;;;;;;23.17;12.63;;;;;;;8.60;64.14;92318.81;5093561;28;20092;-58
2022/04/10 05:23:25;;;;;;;19.05;10.75;;;;;;;8.50;63.80;92320.72;5093551;28;20024;-57
2022/04/10 05:25:51;;;;;;;24.83;8.55;;;;;;;8.37;63.82;92296.97;5093804;28;20028;-57
2022/04/10 05:28:17;;;;;;;14.45;6.75;;;;;;;8.59;63.27;92326.31;5093781;28;20496;-58
2022/04/10 05:30:43;;;;;;;13.77;6.88;;;;;;;8.65;61.65;92335.06;5093728;28;20039;-58
2022/04/10 05:33:09;;;;;;;11.63;7.05;;;;;;;8.77;62.14;92335.34;5093513;28;20028;-58
2022/04/10 05:35:35;;;;;;;13.70;9.27;;;;;;;8.94;62.60;92330.56;5093582;28;20108;-56
2022/04/10 05:38:00;;;;;;;13.57;6.63;;;;;;;9.08;60.69;92342.75;5093322;28;20028;-56
2022/04/10 05:40:26;;;;;;;6.97;4.13;;;;;;;9.18;59.54;92349.06;5093356;28;20050;-58
2022/04/10 05:42:51;;;;;;;5.70;3.35;;;;;;;9.15;59.11;92357.75;5075896;28;20060;-57
2022/04/10 05:45:17;;;;;;;9.40;4.47;;;;;;;9.04;60.33;92360.97;5073092;28;20558;-64
2022/04/10 05:47:43;;;;;;;9.05;4.63;;;;;;;9.14;61.09;92370.78;5072990;28;20425;-59
2022/04/10 05:50:11;;;;;;;10.70;4.55;;;;;;;9.24;60.50;92378.41;5072724;28;20036;-60
2022/04/10 05:52:48;;;;;;;9.77;5.82;;;;;;;9.02;62.23;92380.81;5072869;28;20035;-60
2022/04/10 05:55:15;;;;;;;14.50;6.40;;;;;;;9.04;63.06;92383.00;5083116;28;20028;-60
2022/04/10 05:57:41;;;;;;;10.00;6.25;;;;;;;9.23;61.46;92379.69;5081135;28;20712;-59
2022/04/10 06:00:13;;;;;;;16.05;8.43;;;;;;;9.13;62.59;92379.59;5081505;28;20051;-61
2022/04/10 06:02:39;;;;;;;17.77;10.05;;;;;;;9.21;63.19;92388.53;5081214;28;20024;-61
2022/04/10 06:05:05;;;;;;;15.40;7.32;;;;;;;9.22;63.86;92375.47;5081082;28;20035;-61
2022/04/10 06:07:30;;;;;;;18.05;6.85;;;;;;;9.07;64.69;92379.81;5082008;28;20028;-61
2022/04/10 06:09:55;;;;;;;14.60;7.20;;;;;;;9.02;65.24;92388.34;5083328;28;20031;-61
2022/04/10 06:12:21;;;;;;;12.40;8.13;;;;;;;9.07;65.68;92390.13;5082276;28;20027;-64
2022/04/10 06:14:46;;;;;;;26.55;12.35;;;;;;;9.12;66.86;92381.63;5081511;28;20485;-58
2022/04/10 06:17:12;;;;;;;23.95;11.23;;;;;;;9.13;66.83;92383.09;5083359;28;20055;-57
2022/04/10 06:19:37;;;;;;;13.07;9.93;;;;;;;9.13;67.18;92377.59;5083165;28;20477;-59
2022/04/10 06:22:03;;;;;;;27.35;15.43;;;;;;;9.25;67.10;92371.59;5081923;28;20094;-60
2022/04/10 06:24:28;;;;;;;17.23;10.45;;;;;;;8.98;66.87;92319.91;5080279;28;20008;-60
2022/04/10 06:26:54;;;;;;;45.60;19.40;;;;;;;9.33;66.91;92381.25;5090484;28;20421;-58
2022/04/10 06:29:20;;;;;;;28.60;17.70;;;;;;;9.36;66.91;92382.13;5086968;28;20534;-58
2022/04/10 06:31:46;;;;;;;22.58;14.90;;;;;;;9.40;67.84;92385.22;5073380;28;20025;-58
2022/04/10 06:34:12;;;;;;;28.42;18.55;;;;;;;9.40;67.14;92379.72;5070904;28;20395;-58
2022/04/10 06:36:40;;;;;;;57.10;29.70;;;;;;;9.50;67.66;92399.81;5071986;28;20023;-58
2022/04/10 06:39:06;;;;;;;51.55;25.27;;;;;;;9.56;67.24;92405.81;5079719;28;20020;-59
2022/04/10 06:41:32;;;;;;;19.83;14.20;;;;;;;9.63;67.09;92408.47;5081554;28;20032;-57
2022/04/10 06:43:58;;;;;;;23.13;14.75;;;;;;;9.72;67.61;92407.81;5080074;28;20616;-57
2022/04/10 06:46:26;;;;;;;27.20;19.67;;;;;;;9.64;69.03;92414.72;5088531;28;20089;-57
2022/04/10 06:48:52;;;;;;;27.63;19.53;;;;;;;9.53;70.04;92409.72;5083033;28;20021;-57
2022/04/10 06:51:17;;;;;;;27.88;19.75;;;;;;;9.47;71.02;92411.94;5084784;28;20535;-59
2022/04/10 06:53:43;;;;;;;29.55;21.52;;;;;;;9.35;71.01;92411.72;5076345;28;20051;-59
2022/04/10 06:56:08;;;;;;;29.85;20.17;;;;;;;9.38;71.64;92426.34;5088434;28;20020;-61
2022/04/10 06:58:34;;;;;;;31.65;19.75;;;;;;;9.33;71.49;92433.59;5086396;28;20028;-56
2022/04/10 07:01:00;;;;;;;26.45;19.80;;;;;;;9.28;71.34;92431.06;5071427;28;20126;-59
2022/04/10 07:03:26;;;;;;;26.90;20.33;;;;;;;9.21;72.16;92431.84;5086341;28;20030;-61
2022/04/10 07:05:51;;;;;;;28.58;21.15;;;;;;;9.00;72.63;92424.69;5078028;28;20030;-58
2022/04/10 07:08:17;;;;;;;30.60;19.58;;;;;;;9.05;73.17;92428.50;5079253;28;20055;-60
2022/04/10 07:10:43;;;;;;;29.73;19.73;;;;;;;9.00;73.25;92413.69;5072301;28;20131;-59
2022/04/10 07:13:09;;;;;;;30.00;19.10;;;;;;;9.03;73.62;92409.06;5076338;28;20032;-58
2022/04/10 07:15:34;;;;;;;26.60;19.70;;;;;;;9.12;72.50;92406.41;5084941;28;20024;-59
2022/04/10 07:18:00;;;;;;;30.70;21.40;;;;;;;9.31;72.79;92424.44;5079288;28;20032;-59
2022/04/10 07:20:26;;;;;;;29.92;21.65;;;;;;;9.43;73.22;92419.88;5077494;28;20134;-60
2022/04/10 07:25:37;;;;;;;24.55;17.35;;;;;;;9.57;72.34;92415.53;5079048;28;20062;-59
2022/04/10 07:28:03;;;;;;;21.60;15.60;;;;;;;9.55;71.18;92420.88;5076931;28;20020;-59
2022/04/10 07:30:30;;;;;;;22.25;16.20;;;;;;;9.53;70.99;92417.97;5087541;28;20038;-59
2022/04/10 07:32:57;;;;;;;22.33;16.88;;;;;;;9.28;73.20;92420.78;5087117;28;20621;-61
2022/04/10 07:35:24;;;;;;;26.65;16.55;;;;;;;9.00;73.07;92388.91;5106364;28;20055;-59
2022/04/10 07:37:50;;;;;;;27.83;17.80;;;;;;;8.98;73.52;92421.78;5106977;28;20054;-59
2022/04/10 07:40:16;;;;;;;28.08;17.33;;;;;;;8.75;74.71;92410.19;5107847;28;20612;-58
2022/04/10 07:42:45;;;;;;;26.13;17.63;;;;;;;8.61;76.79;92411.78;5107446;27;20024;-59
2022/04/10 07:47:25;;;;;;;22.33;16.58;;;;;;;8.51;77.29;92402.66;5077121;28;20020;-59
2022/04/10 07:48:01;;;;;;;19.60;14.65;;;;;;;8.69;76.86;92412.44;5076054;28;20044;-59
2022/04/10 07:50:28;;;;;;;23.40;15.20;;;;;;;8.78;75.29;92408.34;5076889;28;20035;-59
2022/04/10 07:52:54;;;;;;;20.73;15.00;;;;;;;8.61;75.92;92411.03;5073566;28;20470;-58
2022/04/10 07:55:21;;;;;;;23.48;16.40;;;;;;;8.67;75.25;92406.03;5077658;28;20024;-60
2022/04/10 07:57:50;;;;;;;24.02;16.58;;;;;;;8.74;75.52;92403.25;5075092;28;20059;-59
2022/04/10 08:00:17;;;;;;;33.08;17.35;;;;;;;8.56;77.16;92381.72;5072583;28;20498;-60
2022/04/10 08:02:48;;;;;;;23.17;16.50;;;;;;;8.81;76.09;92388.72;5074039;28;20032;-61
2022/04/10 08:05:18;;;;;;;26.38;18.80;;;;;;;8.74;76.71;92392.25;5077156;28;20427;-60
2022/04/10 08:07:44;;;;;;;23.20;16.15;;;;;;;8.92;76.65;92387.50;5075742;28;20036;-59
2022/04/10 08:10:10;;;;;;;23.02;15.18;;;;;;;8.66;76.20;92390.84;5078673;28;20481;-60
2022/04/10 08:12:36;;;;;;;25.50;16.75;;;;;;;8.62;76.42;92399.47;5068802;28;20028;-60
2022/04/10 08:15:03;;;;;;;24.30;16.77;;;;;;;8.62;76.82;92401.50;5066657;28;20032;-59
2022/04/10 08:17:29;;;;;;;30.35;19.98;;;;;;;8.21;77.67;92408.31;5067905;28;20115;-59
2022/04/10 08:19:54;;;;;;;44.05;23.98;;;;;;;7.91;78.62;92403.72;5070408;28;20111;-59
2022/04/10 08:22:26;;;;;;;26.38;16.95;;;;;;;7.71;79.29;92401.25;5077760;28;20115;-59
2022/04/10 08:24:52;;;;;;;28.13;18.80;;;;;;;7.73;80.89;92412.41;5075770;28;20023;-59
2022/04/10 08:27:18;;;;;;;31.42;20.58;;;;;;;7.81;80.88;92413.09;5081095;28;20032;-59
2022/04/10 08:29:43;;;;;;;38.20;25.25;;;;;;;8.03;81.59;92407.53;5084221;28;20027;-61
2022/04/10 08:32:08;;;;;;;25.50;16.48;;;;;;;8.13;79.86;92405.63;5087358;28;20032;-61
2022/04/10 08:34:34;;;;;;;26.30;17.40;;;;;;;8.25;80.21;92403.19;5086694;28;20032;-58
2022/04/10 08:37:05;;;;;;;29.75;19.88;;;;;;;8.47;78.80;92409.88;5083750;28;20088;-57
2022/04/10 08:39:34;;;;;;;41.45;28.73;;;;;;;8.59;78.45;92408.88;5083518;28;20126;-58
2022/04/10 08:42:04;;;;;;;36.80;22.25;;;;;;;8.67;77.99;92406.03;5086711;28;20024;-59
2022/04/10 08:44:31;;;;;;;30.15;19.23;;;;;;;8.78;77.70;92409.09;5086472;28;20016;-62
2022/04/10 08:46:58;;;;;;;30.60;20.13;;;;;;;8.85;76.05;92399.31;5083864;28;20110;-57
2022/04/10 08:49:31;;;;;;;25.10;17.10;;;;;;;8.93;76.10;92406.22;5090278;28;20107;-56
2022/04/10 08:51:58;;;;;;;21.42;15.45;;;;;;;8.92;74.97;92409.53;5088506;28;20040;-52
2022/04/10 08:54:24;;;;;;;17.65;12.30;;;;;;;8.87;74.44;92413.97;5078249;28;20030;-58
2022/04/10 08:56:53;;;;;;;21.73;13.40;;;;;;;8.81;73.61;92412.75;5092276;28;20024;-59
2022/04/10 08:59:21;;;;;;;22.92;12.25;;;;;;;8.89;73.54;92408.63;5091085;28;20076;-58
2022/04/10 09:01:53;;;;;;;19.45;11.25;;;;;;;8.74;74.27;92428.00;5099689;28;20114;-53
2022/04/10 09:04:20;;;;;;;11.63;9.82;;;;;;;8.74;73.31;92422.50;5112324;28;20027;-58
2022/04/10 09:07:00;;;;;;;14.82;11.13;;;;;;;8.70;73.73;92422.19;5111955;28;20020;-58
2022/04/10 09:09:26;;;;;;;19.33;11.43;;;;;;;8.73;74.25;92414.81;5111928;28;20519;-58
2022/04/10 09:11:55;;;;;;;18.65;12.32;;;;;;;8.77;73.05;92426.16;5111948;28;20038;-58
2022/04/10 09:14:22;;;;;;;20.25;13.40;;;;;;;8.83;72.74;92424.66;5111251;28;20492;-58
2022/04/10 09:17:14;;;;;;;13.57;10.20;;;;;;;8.73;71.66;92432.03;5112477;28;20038;-57
2022/04/10 09:19:53;;;;;;;13.02;7.93;;;;;;;8.56;72.33;92429.22;5112133;28;20539;-60
2022/04/10 09:22:35;;;;;;;11.57;8.35;;;;;;;8.48;73.08;92441.56;5112074;28;20078;-60
2022/04/10 09:25:13;;;;;;;9.10;6.68;;;;;;;8.52;71.68;92450.16;5111521;28;20039;-59
2022/04/10 09:27:40;;;;;;;13.82;7.85;;;;;;;8.45;72.73;92439.94;5111832;28;20039;-59
2022/04/10 09:30:08;;;;;;;13.02;7.60;;;;;;;8.42;73.05;92446.56;5111913;28;20031;-59
2022/04/10 09:32:39;;;;;;;7.63;5.57;;;;;;;8.15;72.82;92452.53;5111609;28;20504;-62
2022/04/10 09:35:04;;;;;;;6.20;5.00;;;;;;;8.23;71.71;92455.25;5111519;28;20032;-53
2022/04/10 09:37:33;;;;;;;5.55;4.47;;;;;;;8.22;71.14;92453.78;5111973;28;20718;-58
2022/04/10 09:40:22;;;;;;;7.27;4.60;;;;;;;8.10;70.30;92464.47;5110424;28;20031;-60
2022/04/10 09:42:59;;;;;;;4.35;3.55;;;;;;;7.85;70.65;92469.16;5111866;28;20069;-55
2022/04/10 09:45:39;;;;;;;3.22;2.90;;;;;;;7.68;70.67;92466.28;5111953;28;20031;-59
2022/04/10 09:48:17;;;;;;;3.72;3.20;;;;;;;7.59;71.40;92475.81;5111179;28;20032;-61
2022/04/10 09:50:43;;;;;;;3.33;3.03;;;;;;;7.53;70.14;92466.31;5104025;28;20058;-59
2022/04/10 09:53:10;;;;;;;5.90;3.38;;;;;;;7.32;71.19;92469.25;5090525;28;20422;-59
2022/04/10 09:55:40;;;;;;;4.22;3.10;;;;;;;7.34;71.38;92472.19;5090650;28;20040;-60
2022/04/10 09:58:10;;;;;;;3.78;2.95;;;;;;;7.29;71.55;92473.13;5090421;28;20035;-59
2022/04/10 10:00:40;;;;;;;6.57;3.65;;;;;;;7.26;71.51;92471.47;5090399;28;20100;-59
2022/04/10 10:03:07;;;;;;;3.25;2.95;;;;;;;7.21;71.76;92469.63;5090894;28;20027;-60
2022/04/10 10:05:33;;;;;;;4.35;3.90;;;;;;;7.25;70.95;92481.00;5084066;28;20074;-60
2022/04/10 10:07:59;;;;;;;4.47;3.33;;;;;;;7.15;71.66;92482.09;5071128;28;20052;-59
2022/04/10 10:10:29;;;;;;;6.25;3.97;;;;;;;7.13;71.39;92481.91;5077226;28;20032;-60
2022/04/10 10:12:55;;;;;;;;;;;;;;;7.06;71.90;92486.13;5096876;28;20032;-61
2022/04/10 10:15:20;;;;;;;7.03;4.00;;;;;;;6.96;72.48;92482.47;5109475;28;20369;-61
2022/04/10 10:17:46;;;;;;;4.55;4.07;;;;;;;6.80;72.52;92489.22;5110703;28;20130;-58
2022/04/10 10:20:11;;;;;;;3.42;3.00;;;;;;;6.89;72.13;92481.19;5110876;28;20034;-59
2022/04/10 10:22:37;;;;;;;3.63;3.30;;;;;;;6.93;71.38;92480.09;5110575;28;20500;-59
2022/04/10 10:25:09;;;;;;;12.70;4.22;;;;;;;6.76;72.82;92483.38;5110247;28;20520;-61
2022/04/10 10:27:45;;;;;;;7.28;4.13;;;;;;;6.61;72.88;92481.34;5110635;28;20088;-59
2022/04/10 10:30:35;;;;;;;8.88;2.88;;;;;;;6.45;73.08;92481.88;5109559;28;20035;-60
2022/04/10 10:33:19;;;;;;;4.13;3.20;;;;;;;6.41;73.28;92484.94;5110939;28;20165;-58
2022/04/10 10:35:49;;;;;;;6.05;2.20;;;;;;;6.26;74.21;92479.44;5109319;28;20049;-61
2022/04/10 10:38:30;;;;;;;4.97;3.00;;;;;;;6.30;73.72;92468.88;5110605;28;20034;-60
2022/04/10 10:41:09;;;;;;;6.35;4.63;;;;;;;6.46;73.35;92470.34;5110231;28;20030;-59
2022/04/10 10:43:35;;;;;;;7.80;5.18;;;;;;;6.39;74.31;92471.06;5109977;28;20012;-58
2022/04/10 10:46:00;;;;;;;13.98;7.20;;;;;;;6.41;75.62;92471.25;5109993;28;20108;-59
2022/04/10 10:48:32;;;;;;;37.10;13.18;;;;;;;6.63;75.01;92478.03;5089893;28;20039;-57
2022/04/10 10:51:09;;;;;;;55.75;20.70;;;;;;;6.79;73.37;92471.31;5089707;28;20032;-58
2022/04/10 10:53:57;;;;;;;5.18;2.50;;;;;;;6.79;72.07;92471.31;5072628;28;20024;-59
2022/04/10 10:56:36;;;;;;;150.05;45.92;;;;;;;6.82;72.22;92467.47;5066960;28;20055;-57
2022/04/10 10:59:21;;;;;;;;;;;;;;;6.76;73.58;92467.66;5080982;28;20028;-57
2022/04/10 11:02:07;;;;;;;3.92;3.22;;;;;;;6.37;73.40;92475.63;5087144;28;19922;-58
2022/04/10 11:04:52;;;;;;;4.93;3.50;;;;;;;6.61;74.26;92459.41;5085678;28;20032;-55
2022/04/10 11:07:18;;;;;;;4.03;3.50;;;;;;;6.73;74.82;92454.31;5066560;28;20059;-53
2022/04/10 11:09:58;;;;;;;5.75;4.47;;;;;;;6.87;74.34;92450.81;5066871;28;20194;-54
2022/04/10 11:12:31;;;;;;;7.57;5.13;;;;;;;7.11;73.04;92446.78;5065885;28;20028;-57
2022/04/10 11:14:56;;;;;;;6.57;4.55;;;;;;;7.26;72.30;92440.53;5065269;28;20111;-55
2022/04/10 11:17:29;;;;;;;4.38;3.55;;;;;;;7.32;72.43;92433.56;5066727;28;20107;-57
2022/04/10 11:19:56;;;;;;;4.15;3.40;;;;;;;7.37;73.98;92435.41;5066628;28;20101;-58
2022/04/10 11:22:23;;;;;;;6.40;4.22;;;;;;;7.35;73.46;92423.50;5066366;28;20119;-58
2022/04/10 11:24:53;;;;;;;12.85;6.28;;;;;;;7.38;74.73;92425.91;5066773;28;20043;-57
2022/04/10 11:27:55;;;;;;;3.60;3.08;;;;;;;7.49;73.83;92422.72;5066592;28;20521;-52
2022/04/10 11:30:28;;;;;;;6.35;4.55;;;;;;;7.55;73.46;92419.81;5066845;28;20082;-58
2022/04/10 11:32:57;;;;;;;3.72;2.70;;;;;;;7.68;73.38;92413.34;5066347;28;20521;-57
2022/04/10 11:35:33;;;;;;;3.25;2.85;;;;;;;7.89;72.33;92414.53;5066020;28;20036;-57
2022/04/10 11:38:18;;;;;;;2.88;2.58;;;;;;;7.92;72.33;92410.69;5066156;28;20767;-58
2022/04/10 11:40:48;;;;;;;4.43;3.40;;;;;;;7.86;72.45;92415.63;5066407;28;20032;-56